createdAt,value
2022-10-17T00:01:34.582Z,72.19
2022-10-17T00:04:01.503Z,72.28
2022-10-17T00:06:28.126Z,72.36
2022-10-17T00:08:54.904Z,72.44
2022-10-17T00:11:23.707Z,72.52
2022-10-17T00:13:51.593Z,72.65
2022-10-17T00:16:30.773Z,72.71
2022-10-17T00:18:57.950Z,72.89
2022-10-17T00:21:25.979Z,72.93
2022-10-17T00:23:53.069Z,73.05
2022-10-17T00:26:21.038Z,73.12
2022-10-17T00:28:49.284Z,73.23
2022-10-17T00:31:17.931Z,73.31
2022-10-17T00:33:45.489Z,73.45
2022-10-17T00:36:19.285Z,73.54
2022-10-17T00:38:49.830Z,73.65
2022-10-17T00:41:19.056Z,73.48
2022-10-17T00:43:48.979Z,73.42
2022-10-17T00:46:15.763Z,73.43
2022-10-17T00:48:43.298Z,73.28
2022-10-17T00:51:10.535Z,73.22
2022-10-17T00:53:39.273Z,73.19
2022-10-17T00:56:06.308Z,73.24
2022-10-17T00:58:33.364Z,73.20
2022-10-17T01:01:01.683Z,73.16
2022-10-17T01:03:28.359Z,73.12
2022-10-17T01:05:55.562Z,73.11
2022-10-17T01:08:22.359Z,73.12
2022-10-17T01:11:13.516Z,73.16
2022-10-17T01:14:02.321Z,73.38
2022-10-17T01:16:43.600Z,73.45
2022-10-17T01:19:30.935Z,73.50
2022-10-17T01:22:01.808Z,73.42
2022-10-17T01:24:49.240Z,73.43
2022-10-17T01:28:12.860Z,73.58
2022-10-17T01:30:58.556Z,73.61
2022-10-17T01:33:46.841Z,73.65
2022-10-17T01:36:37.570Z,73.67
2022-10-17T01:39:38.691Z,73.67
2022-10-17T01:42:34.121Z,73.67
2022-10-17T01:45:12.655Z,73.63
2022-10-17T01:47:42.212Z,73.57
2022-10-17T01:50:24.149Z,73.47
2022-10-17T01:52:53.272Z,73.55
2022-10-17T01:55:25.450Z,73.52
2022-10-17T01:58:03.332Z,73.48
2022-10-17T02:00:32.384Z,73.50
2022-10-17T02:03:01.335Z,73.44
2022-10-17T02:05:32.822Z,73.46
2022-10-17T02:07:59.663Z,73.55
2022-10-17T02:10:35.304Z,73.58
2022-10-17T02:13:22.013Z,73.75
2022-10-17T02:16:18.084Z,73.81
2022-10-17T02:18:57.120Z,73.83
2022-10-17T02:21:44.163Z,73.86
2022-10-17T02:24:11.027Z,73.87
2022-10-17T02:27:12.233Z,73.87
2022-10-17T02:29:47.976Z,74.01
2022-10-17T02:32:37.013Z,74.13
2022-10-17T02:35:08.061Z,74.15
2022-10-17T02:37:36.442Z,74.20
2022-10-17T02:40:05.170Z,74.22
2022-10-17T02:42:33.175Z,74.28
2022-10-17T02:45:02.391Z,74.25
2022-10-17T02:47:40.791Z,74.24
2022-10-17T02:50:08.093Z,74.30
2022-10-17T02:52:45.867Z,74.09
2022-10-17T02:55:25.737Z,74.14
2022-10-17T02:57:56.872Z,74.18
2022-10-17T03:00:25.468Z,74.03
2022-10-17T03:02:53.894Z,73.98
2022-10-17T03:05:26.457Z,73.91
2022-10-17T03:07:54.884Z,73.99
2022-10-17T03:10:22.390Z,73.89
2022-10-17T03:12:49.074Z,73.88
2022-10-17T03:15:16.314Z,73.88
2022-10-17T03:17:43.141Z,73.89
2022-10-17T03:20:10.439Z,73.91
2022-10-17T03:22:37.393Z,73.94
2022-10-17T03:25:05.043Z,73.98
2022-10-17T03:27:34.026Z,74.01
2022-10-17T03:30:01.364Z,74.06
2022-10-17T03:32:29.388Z,74.09
2022-10-17T03:34:56.202Z,74.09
2022-10-17T03:37:23.378Z,74.09
2022-10-17T03:39:50.052Z,74.08
2022-10-17T03:42:16.983Z,74.08
2022-10-17T03:44:43.911Z,74.09
2022-10-17T03:47:13.405Z,74.09
2022-10-17T03:49:41.634Z,74.08
2022-10-17T03:52:12.994Z,74.06
2022-10-17T03:54:40.438Z,74.13
2022-10-17T03:57:07.114Z,74.05
2022-10-17T03:59:35.403Z,74.04
2022-10-17T04:02:02.737Z,74.01
2022-10-17T04:04:29.684Z,74.01
2022-10-17T04:06:57.244Z,74.01
2022-10-17T04:09:24.067Z,74.00
2022-10-17T04:11:52.993Z,73.99
2022-10-17T04:14:20.603Z,73.95
2022-10-17T04:16:47.398Z,73.94
2022-10-17T04:19:15.147Z,73.95
2022-10-17T04:21:41.981Z,73.96
2022-10-17T04:24:11.823Z,73.95
2022-10-17T04:26:39.797Z,73.95
2022-10-17T04:29:06.576Z,73.88
2022-10-17T04:31:33.313Z,73.87
2022-10-17T04:34:00.813Z,73.88
2022-10-17T04:36:27.553Z,73.88
2022-10-17T04:38:54.536Z,73.89
2022-10-17T04:41:21.549Z,73.89
2022-10-17T04:43:51.024Z,73.89
2022-10-17T04:46:18.653Z,73.87
2022-10-17T04:48:45.893Z,73.86
2022-10-17T04:51:14.945Z,73.84
2022-10-17T04:53:46.705Z,73.85
2022-10-17T04:56:17.316Z,73.83
2022-10-17T04:58:45.139Z,73.87
2022-10-17T05:01:18.459Z,73.84
2022-10-17T05:03:46.448Z,73.96
2022-10-17T05:06:19.087Z,73.85
2022-10-17T05:08:47.399Z,73.88
2022-10-17T05:11:26.205Z,73.77
2022-10-17T05:13:58.592Z,73.85
2022-10-17T05:16:26.632Z,73.81
2022-10-17T05:18:57.937Z,73.71
2022-10-17T05:21:28.651Z,73.69
2022-10-17T05:23:56.548Z,73.63
2022-10-17T05:26:25.470Z,73.57
2022-10-17T05:28:52.813Z,73.53
2022-10-17T05:31:22.244Z,73.48
2022-10-17T05:33:49.140Z,73.40
2022-10-17T05:36:15.781Z,73.32
2022-10-17T05:38:43.497Z,73.27
2022-10-17T05:41:11.007Z,73.24
2022-10-17T05:43:38.144Z,73.14
2022-10-17T05:46:06.622Z,73.07
2022-10-17T05:48:34.526Z,73.02
2022-10-17T05:51:04.178Z,72.95
2022-10-17T05:53:33.500Z,72.90
2022-10-17T05:56:05.252Z,72.81
2022-10-17T05:58:52.286Z,72.80
2022-10-17T06:01:22.757Z,72.72
2022-10-17T06:03:51.057Z,72.66
2022-10-17T06:06:18.970Z,72.58
2022-10-17T06:08:46.187Z,72.48
2022-10-17T06:11:13.678Z,72.38
2022-10-17T06:13:41.763Z,72.29
2022-10-17T06:16:09.766Z,72.23
2022-10-17T06:18:36.706Z,72.07
2022-10-17T06:21:09.843Z,71.94
2022-10-17T06:23:40.047Z,71.95
2022-10-17T06:26:07.643Z,71.65
2022-10-17T06:28:35.923Z,71.52
2022-10-17T06:31:08.186Z,71.40
2022-10-17T06:33:36.117Z,71.35
2022-10-17T06:36:05.001Z,71.05
2022-10-17T06:38:32.164Z,70.92
2022-10-17T06:41:13.431Z,70.79
2022-10-17T06:43:46.110Z,70.91
2022-10-17T06:46:21.342Z,70.64
2022-10-17T06:48:50.788Z,70.50
2022-10-17T06:51:17.605Z,70.34
2022-10-17T06:53:44.494Z,70.12
2022-10-17T06:56:12.194Z,69.85
2022-10-17T06:58:40.438Z,69.64
2022-10-17T07:01:11.747Z,69.39
2022-10-17T07:03:40.174Z,69.17
2022-10-17T07:06:07.297Z,69.62
2022-10-17T07:08:34.029Z,68.85
2022-10-17T07:11:19.135Z,68.58
2022-10-17T07:13:48.374Z,68.56
2022-10-17T07:16:16.517Z,68.08
2022-10-17T07:18:44.414Z,67.97
2022-10-17T07:21:11.093Z,67.86
2022-10-17T07:23:39.867Z,67.70
2022-10-17T07:26:09.622Z,67.58
2022-10-17T07:28:39.857Z,67.50
2022-10-17T07:31:11.887Z,67.36
2022-10-17T07:33:38.946Z,67.28
2022-10-17T07:36:06.202Z,67.07
2022-10-17T07:38:34.295Z,66.88
2022-10-17T07:41:03.756Z,66.84
2022-10-17T07:43:31.041Z,66.84
2022-10-17T07:46:00.819Z,66.76
2022-10-17T07:48:27.504Z,66.75
2022-10-17T07:50:54.568Z,66.73
2022-10-17T07:53:21.756Z,66.65
2022-10-17T07:55:49.615Z,66.46
2022-10-17T07:58:17.033Z,66.32
2022-10-17T08:00:44.058Z,66.33
2022-10-17T08:03:11.059Z,66.07
2022-10-17T08:05:37.690Z,65.83
2022-10-17T08:08:04.509Z,65.67
2022-10-17T08:10:31.608Z,65.42
2022-10-17T08:12:58.749Z,65.27
2022-10-17T08:15:29.430Z,65.16
2022-10-17T08:17:59.569Z,64.81
2022-10-17T08:20:26.524Z,64.83
2022-10-17T08:22:54.412Z,64.79
2022-10-17T08:25:22.099Z,64.63
2022-10-17T08:27:50.672Z,64.56
2022-10-17T08:30:17.870Z,64.42
2022-10-17T08:32:45.113Z,64.33
2022-10-17T08:35:11.988Z,64.31
2022-10-17T08:37:38.594Z,64.10
2022-10-17T08:40:06.052Z,63.83
2022-10-17T08:42:41.676Z,63.64
2022-10-17T08:45:08.596Z,63.69
2022-10-17T08:47:45.559Z,63.24
2022-10-17T08:50:26.831Z,63.06
2022-10-17T08:53:10.821Z,62.83
2022-10-17T08:55:44.394Z,62.50
2022-10-17T08:58:23.045Z,62.36
2022-10-17T09:01:08.017Z,62.20
2022-10-17T09:04:00.464Z,62.13
2022-10-17T09:06:35.141Z,61.93
2022-10-17T09:09:20.704Z,61.68
2022-10-17T09:12:05.192Z,61.71
2022-10-17T09:14:53.696Z,61.37
2022-10-17T09:17:42.839Z,61.40
2022-10-17T09:20:16.169Z,61.28
2022-10-17T09:23:13.399Z,61.17
2022-10-17T09:25:47.939Z,61.02
2022-10-17T09:28:32.644Z,60.56
2022-10-17T09:31:04.669Z,60.55
2022-10-17T09:33:53.724Z,60.55
2022-10-17T09:36:29.474Z,60.34
2022-10-17T09:38:59.779Z,60.32
2022-10-17T09:41:44.798Z,60.19
2022-10-17T09:44:23.502Z,60.03
2022-10-17T09:47:22.340Z,59.84
2022-10-17T09:49:50.236Z,59.80
2022-10-17T09:52:27.880Z,60.03
2022-10-17T09:55:02.724Z,59.67
2022-10-17T09:57:49.386Z,59.28
2022-10-17T10:00:23.749Z,59.59
2022-10-17T10:02:50.743Z,59.21
2022-10-17T10:05:20.057Z,59.57
2022-10-17T10:08:15.524Z,59.24
2022-10-17T10:10:43.747Z,59.04
2022-10-17T10:13:13.284Z,59.51
2022-10-17T10:15:46.082Z,59.06
2022-10-17T10:21:09.768Z,58.17
2022-10-17T10:23:40.478Z,58.02
2022-10-17T10:26:27.692Z,58.11
2022-10-17T10:29:01.910Z,57.79
2022-10-17T10:31:32.511Z,57.49
2022-10-17T10:34:02.336Z,57.48
2022-10-17T10:36:46.890Z,57.76
2022-10-17T10:39:41.897Z,57.29
2022-10-17T10:42:30.898Z,57.16
2022-10-17T10:45:04.234Z,57.01
2022-10-17T10:47:33.004Z,57.02
2022-10-17T10:50:21.028Z,57.08
2022-10-17T10:53:00.189Z,56.51
2022-10-17T10:55:32.677Z,56.54
2022-10-17T10:58:08.725Z,56.66
2022-10-17T11:00:38.859Z,56.52
2022-10-17T11:03:42.756Z,56.67
2022-10-17T11:06:32.575Z,56.36
2022-10-17T11:09:24.367Z,56.02
2022-10-17T11:12:29.148Z,55.64
2022-10-17T11:14:58.380Z,55.40
2022-10-17T11:17:51.311Z,55.38
2022-10-17T11:20:27.404Z,54.98
2022-10-17T11:23:01.602Z,54.87
2022-10-17T11:25:33.164Z,54.74
2022-10-17T11:28:04.729Z,54.67
2022-10-17T11:30:46.833Z,54.84
2022-10-17T11:33:26.032Z,54.11
2022-10-17T11:35:58.729Z,54.46
2022-10-17T11:38:50.740Z,54.28
2022-10-17T11:41:24.862Z,54.07
2022-10-17T11:44:03.976Z,54.34
2022-10-17T11:46:34.290Z,54.12
2022-10-17T11:49:19.838Z,54.54
2022-10-17T11:52:00.466Z,53.83
2022-10-17T11:54:56.303Z,53.57
2022-10-17T11:57:37.254Z,53.65
2022-10-17T12:00:36.830Z,53.31
2022-10-17T12:03:27.566Z,53.30
2022-10-17T12:06:19.374Z,53.12
2022-10-17T12:09:00.703Z,53.11
2022-10-17T12:12:02.368Z,53.13
2022-10-17T12:14:45.689Z,52.97
2022-10-17T12:17:39.039Z,53.11
2022-10-17T12:20:21.558Z,52.88
2022-10-17T12:22:53.447Z,52.90
2022-10-17T12:25:22.548Z,53.62
2022-10-17T12:27:51.295Z,53.10
2022-10-17T12:30:24.865Z,53.30
2022-10-17T12:33:34.229Z,52.95
2022-10-17T12:36:22.768Z,52.56
2022-10-17T12:39:14.544Z,52.55
2022-10-17T12:41:41.395Z,52.85
2022-10-17T12:44:14.636Z,52.54
2022-10-17T12:46:47.339Z,52.01
2022-10-17T12:49:39.172Z,52.33
2022-10-17T12:52:48.137Z,52.03
2022-10-17T12:55:19.900Z,52.08
2022-10-17T12:58:08.073Z,52.07
2022-10-17T13:00:49.688Z,51.96
2022-10-17T13:03:28.351Z,52.35
2022-10-17T13:05:59.534Z,51.97
2022-10-17T13:08:31.894Z,52.31
2022-10-17T13:10:58.954Z,52.09
2022-10-17T13:13:34.447Z,52.67
2022-10-17T13:16:01.843Z,51.68
2022-10-17T13:18:30.330Z,52.46
2022-10-17T13:21:05.704Z,52.25
2022-10-17T13:23:35.904Z,51.91
2022-10-17T13:26:20.310Z,51.88
2022-10-17T13:29:04.647Z,51.11
2022-10-17T13:31:37.298Z,51.13
2022-10-17T13:34:07.181Z,51.63
2022-10-17T13:36:35.294Z,51.49
2022-10-17T13:39:12.476Z,51.75
2022-10-17T13:41:41.969Z,51.04
2022-10-17T13:44:22.759Z,51.86
2022-10-17T13:46:50.382Z,50.86
2022-10-17T13:49:24.523Z,51.74
2022-10-17T13:51:56.176Z,51.18
2022-10-17T13:54:42.732Z,51.58
2022-10-17T13:57:21.482Z,50.71
2022-10-17T13:59:52.283Z,50.71
2022-10-17T14:02:26.857Z,51.02
2022-10-17T14:05:17.712Z,50.74
2022-10-17T14:08:10.546Z,50.64
2022-10-17T14:10:40.706Z,51.22
2022-10-17T14:13:20.019Z,51.21
2022-10-17T14:15:47.311Z,50.59
2022-10-17T14:18:19.668Z,51.42
2022-10-17T14:21:29.232Z,50.77
2022-10-17T14:23:34.697Z,51.35
2022-10-17T14:26:22.049Z,51.45
2022-10-17T14:29:03.137Z,50.55
2022-10-17T14:31:37.136Z,51.15
2022-10-17T14:34:05.694Z,50.67
2022-10-17T14:36:40.300Z,51.40
2022-10-17T14:39:18.337Z,50.86
2022-10-17T14:41:46.607Z,51.51
2022-10-17T14:44:20.684Z,51.54
2022-10-17T14:46:52.579Z,51.13
2022-10-17T14:49:28.173Z,51.37
2022-10-17T14:52:18.306Z,51.01
2022-10-17T14:54:50.118Z,50.93
2022-10-17T14:57:23.149Z,51.20
2022-10-17T14:59:55.068Z,51.77
2022-10-17T15:02:24.027Z,51.80
2022-10-17T15:04:51.312Z,51.70
2022-10-17T15:07:18.916Z,51.86
2022-10-17T15:09:48.251Z,51.82
2022-10-17T15:12:21.669Z,51.55
2022-10-17T15:14:48.759Z,51.52
2022-10-17T15:17:27.959Z,51.91
2022-10-17T15:19:55.630Z,51.15
2022-10-17T15:22:23.648Z,51.98
2022-10-17T15:24:50.690Z,52.05
2022-10-17T15:27:21.343Z,52.09
2022-10-17T15:29:48.719Z,51.80
2022-10-17T15:32:16.048Z,52.12
2022-10-17T15:34:43.161Z,52.17
2022-10-17T15:37:22.473Z,52.20
2022-10-17T15:39:53.565Z,51.54
2022-10-17T15:42:23.094Z,52.10
2022-10-17T15:44:50.395Z,52.10
2022-10-17T15:47:28.986Z,52.25
2022-10-17T15:49:56.640Z,51.68
2022-10-17T15:52:24.463Z,52.28
2022-10-17T15:54:51.872Z,52.30
2022-10-17T15:57:25.613Z,52.36
2022-10-17T15:59:54.200Z,51.91
2022-10-17T16:02:23.068Z,52.31
2022-10-17T16:04:51.441Z,52.38
2022-10-17T16:07:20.282Z,52.46
2022-10-17T16:09:47.406Z,52.41
2022-10-17T16:14:49.459Z,52.10
2022-10-17T16:17:16.954Z,52.54
2022-10-17T16:19:44.010Z,52.53
2022-10-17T16:22:36.533Z,52.58
2022-10-17T16:25:10.119Z,52.07
2022-10-17T16:27:37.665Z,52.23
2022-10-17T16:30:07.155Z,52.58
2022-10-17T16:32:34.511Z,52.43
2022-10-17T16:35:01.554Z,52.54
2022-10-17T16:37:28.477Z,52.59
2022-10-17T16:39:55.099Z,52.61
2022-10-17T16:42:22.428Z,52.62
2022-10-17T16:44:50.363Z,52.63
2022-10-17T16:47:18.431Z,52.61
2022-10-17T16:49:45.843Z,52.64
2022-10-17T16:52:13.134Z,52.62
2022-10-17T16:54:39.889Z,52.61
2022-10-17T16:57:06.774Z,52.59
2022-10-17T16:59:33.764Z,52.57
2022-10-17T17:02:00.877Z,52.58
2022-10-17T17:04:27.645Z,52.57
2022-10-17T17:06:54.619Z,52.52
2022-10-17T17:09:21.462Z,52.44
2022-10-17T17:11:48.215Z,52.41
2022-10-17T17:14:15.399Z,52.30
2022-10-17T17:16:43.418Z,52.31
2022-10-17T17:19:13.013Z,52.29
2022-10-17T17:21:40.332Z,52.11
2022-10-17T17:24:06.990Z,52.21
2022-10-17T17:26:38.953Z,52.25
2022-10-17T17:29:05.929Z,52.08
2022-10-17T17:31:34.723Z,52.16
2022-10-17T17:34:02.591Z,52.04
2022-10-17T17:36:32.766Z,51.99
2022-10-17T17:39:00.975Z,51.86
2022-10-17T17:41:28.429Z,51.90
2022-10-17T17:43:56.064Z,51.96
2022-10-17T17:46:23.993Z,51.96
2022-10-17T17:48:52.591Z,51.96
2022-10-17T17:51:28.491Z,51.84
2022-10-17T17:53:56.486Z,51.86
2022-10-17T17:56:28.922Z,51.91
2022-10-17T17:58:59.104Z,51.58
2022-10-17T18:01:28.481Z,51.65
2022-10-17T18:03:58.902Z,51.77
2022-10-17T18:06:26.786Z,51.85
2022-10-17T18:08:58.048Z,51.89
2022-10-17T18:11:26.258Z,51.64
2022-10-17T18:13:55.121Z,51.87
2022-10-17T18:16:21.983Z,51.77
2022-10-17T18:18:49.261Z,51.92
2022-10-17T18:21:16.400Z,51.94
2022-10-17T18:23:45.548Z,51.96
2022-10-17T18:26:14.385Z,51.85
2022-10-17T18:31:15.513Z,51.88
2022-10-17T18:33:44.587Z,51.58
2022-10-17T18:36:13.853Z,51.90
2022-10-17T18:38:40.791Z,51.81
2022-10-17T18:41:13.912Z,51.97
2022-10-17T18:43:42.946Z,51.63
2022-10-17T18:46:14.818Z,51.96
2022-10-17T18:48:44.454Z,51.85
2022-10-17T18:51:12.956Z,51.88
2022-10-17T18:53:44.988Z,51.91
2022-10-17T18:56:13.366Z,51.63
2022-10-17T18:58:40.669Z,51.94
2022-10-17T19:01:17.665Z,51.98
2022-10-17T19:03:47.319Z,51.70
2022-10-17T19:06:16.453Z,51.83
2022-10-17T19:08:44.137Z,51.87
2022-10-17T19:11:12.298Z,51.94
2022-10-17T19:13:39.584Z,51.84
2022-10-17T19:16:08.308Z,51.95
2022-10-17T19:18:35.990Z,51.88
2022-10-17T19:21:04.894Z,51.95
2022-10-17T19:23:31.990Z,51.89
2022-10-17T19:26:07.328Z,51.93
2022-10-17T19:28:34.933Z,51.68
2022-10-17T19:31:02.337Z,52.00
2022-10-17T19:36:15.968Z,52.09
2022-10-17T19:38:43.080Z,51.76
2022-10-17T19:41:11.768Z,52.09
2022-10-17T19:43:40.044Z,52.06
2022-10-17T19:46:10.456Z,52.10
2022-10-17T19:48:38.038Z,52.01
2022-10-17T19:51:06.298Z,52.15
2022-10-17T19:53:33.721Z,52.15
2022-10-17T19:56:00.936Z,52.20
2022-10-17T19:58:28.038Z,52.22
2022-10-17T20:00:57.274Z,52.22
2022-10-17T20:03:25.294Z,52.17
2022-10-17T20:05:52.267Z,52.23
2022-10-17T20:08:19.396Z,52.15
2022-10-17T20:10:46.463Z,52.18
2022-10-17T20:13:14.183Z,52.20
2022-10-17T20:15:41.231Z,52.23
2022-10-17T20:18:08.892Z,52.29
2022-10-17T20:20:36.795Z,52.30
2022-10-17T20:23:04.700Z,52.30
2022-10-17T20:25:33.416Z,52.30
2022-10-17T20:28:00.297Z,52.46
2022-10-17T20:30:27.027Z,52.48
2022-10-17T20:32:55.572Z,52.52
2022-10-17T20:35:22.816Z,52.56
2022-10-17T20:37:49.564Z,52.60
2022-10-17T20:40:34.753Z,52.66
2022-10-17T20:43:06.616Z,52.70
2022-10-17T20:45:50.769Z,52.65
2022-10-17T20:48:18.669Z,52.44
2022-10-17T20:50:45.570Z,52.78
2022-10-17T20:56:05.811Z,52.81
2022-10-17T20:58:32.642Z,52.63
2022-10-17T21:01:05.332Z,52.88
2022-10-17T21:03:35.530Z,52.69
2022-10-17T21:06:02.425Z,52.80
2022-10-17T21:08:29.151Z,52.95
2022-10-17T21:11:06.893Z,52.99
2022-10-17T21:13:33.544Z,52.76
2022-10-17T21:16:05.644Z,53.07
2022-10-17T21:18:32.320Z,52.89
2022-10-17T21:21:26.687Z,53.08
2022-10-17T21:23:58.847Z,52.88
2022-10-17T21:26:25.535Z,52.97
2022-10-17T21:28:52.502Z,53.15
2022-10-17T21:31:22.489Z,53.21
2022-10-17T21:33:57.184Z,53.19
2022-10-17T21:36:25.759Z,53.13
2022-10-17T21:38:54.541Z,53.26
2022-10-17T21:41:23.989Z,53.26
2022-10-17T21:43:59.282Z,53.28
2022-10-17T21:46:26.212Z,53.17
2022-10-17T21:48:53.690Z,53.33
2022-10-17T21:51:22.923Z,53.35
2022-10-17T21:53:50.891Z,53.33
2022-10-17T21:56:24.011Z,53.42
2022-10-17T21:58:51.712Z,53.28
2022-10-17T22:01:43.328Z,53.44
2022-10-17T22:04:12.849Z,53.31
2022-10-17T22:06:41.966Z,53.42
2022-10-17T22:09:15.880Z,53.44
2022-10-17T22:11:46.133Z,53.42
2022-10-17T22:14:15.599Z,53.47
2022-10-17T22:16:44.947Z,53.53
2022-10-17T22:19:13.319Z,53.60
2022-10-17T22:21:40.214Z,53.61
2022-10-17T22:24:10.638Z,53.65
2022-10-17T22:26:38.015Z,53.65
2022-10-17T22:29:06.772Z,53.73
2022-10-17T22:31:34.113Z,53.69
2022-10-17T22:34:00.836Z,53.77
2022-10-17T22:36:27.633Z,53.81
2022-10-17T22:38:54.889Z,53.87
2022-10-17T22:41:21.807Z,53.89
2022-10-17T22:43:48.468Z,53.93
2022-10-17T22:46:18.725Z,54.00
2022-10-17T22:48:45.517Z,54.04
2022-10-17T22:51:12.413Z,54.11
2022-10-17T22:53:39.466Z,54.19
2022-10-17T22:56:11.968Z,54.20
2022-10-17T22:58:39.240Z,54.16
2022-10-17T23:01:07.348Z,54.28
2022-10-17T23:03:35.296Z,54.34
2022-10-17T23:06:03.038Z,54.39
2022-10-17T23:08:30.072Z,54.45
2022-10-17T23:10:56.894Z,54.47
2022-10-17T23:13:24.125Z,54.53
2022-10-17T23:15:53.166Z,54.59
2022-10-17T23:18:20.786Z,54.55
2022-10-17T23:20:48.520Z,54.65
2022-10-17T23:23:15.529Z,54.70
2022-10-17T23:25:42.799Z,54.76
2022-10-17T23:28:10.532Z,54.79
2022-10-17T23:30:38.023Z,54.83
2022-10-17T23:33:05.635Z,54.87
2022-10-17T23:35:32.961Z,54.91
2022-10-17T23:38:00.030Z,54.97
2022-10-17T23:40:27.124Z,55.04
2022-10-17T23:42:54.078Z,55.09
2022-10-17T23:45:21.028Z,55.15
2022-10-17T23:47:47.686Z,55.20
2022-10-17T23:50:14.753Z,55.21
2022-10-17T23:52:41.438Z,55.25
2022-10-17T23:55:08.950Z,55.28
2022-10-17T23:57:35.975Z,55.34
